Time,TemperatureF,DewpointF,PressureIn,WindDirection,WindDirectionDegrees,WindSpeedMPH,WindSpeedGustMPH,Humidity,HourlyPrecipIn,Conditions,Clouds,dailyrainin,SoftwareType,DateUTC
2013-04-27 00:04:00,50.4,45.0,30.36,ENE,74,0.0,0.0,81,0.00,,,0.00,weatherlink.com 1.10,2013-04-27 04:04:00,
2013-04-27 00:19:00,50.2,45.0,30.36,ENE,74,0.0,0.0,82,0.00,,,0.00,weatherlink.com 1.10,2013-04-27 04:19:00,
2013-04-27 00:34:00,50.6,45.0,30.36,ENE,74,0.0,0.0,80,0.00,,,0.00,weatherlink.com 1.10,2013-04-27 04:34:00,
2013-04-27 00:49:00,52.8,45.0,30.36,South,177,0.0,3.0,76,0.00,,,0.00,weatherlink.com 1.10,2013-04-27 04:49:00,
2013-04-27 01:04:00,54.3,46.0,30.37,SW,224,3.0,3.0,73,0.00,,,0.00,weatherlink.com 1.10,2013-04-27 05:04:00,
2013-04-27 01:19:00,55.4,46.0,30.37,SSE,155,3.0,5.0,71,0.00,,,0.00,weatherlink.com 1.10,2013-04-27 05:19:00,
2013-04-27 01:34:00,55.3,46.0,30.37,SE,125,0.0,3.0,71,0.00,,,0.00,weatherlink.com 1.10,2013-04-27 05:34:00,
2013-04-27 01:49:00,55.3,46.0,30.36,SE,137,0.0,2.0,72,0.00,,,0.00,weatherlink.com 1.10,2013-04-27 05:49:00,
2013-04-27 02:04:00,55.1,46.0,30.36,SSE,150,0.0,1.0,72,0.00,,,0.00,weatherlink.com 1.10,2013-04-27 06:04:00,
2013-04-27 02:19:00,55.0,46.0,30.36,SSE,148,0.0,2.0,73,0.00,,,0.00,weatherlink.com 1.10,2013-04-27 06:19:00,
2013-04-27 02:34:00,54.7,47.0,30.37,SSE,148,0.0,0.0,75,0.00,,,0.00,weatherlink.com 1.10,2013-04-27 06:34:00,
2013-04-27 02:49:00,54.1,47.0,30.37,SSE,148,0.0,0.0,77,0.00,,,0.00,weatherlink.com 1.10,2013-04-27 06:49:00,
2013-04-27 03:04:00,53.9,48.0,30.36,SSE,148,0.0,0.0,79,0.00,,,0.00,weatherlink.com 1.10,2013-04-27 07:04:00,
2013-04-27 03:19:00,53.8,47.0,30.36,SSE,148,0.0,0.0,78,0.00,,,0.00,weatherlink.com 1.10,2013-04-27 07:19:00,
2013-04-27 03:34:00,53.5,48.0,30.36,SSE,148,0.0,0.0,81,0.00,,,0.00,weatherlink.com 1.10,2013-04-27 07:34:00,
2013-04-27 03:49:00,53.3,48.0,30.36,SSE,148,0.0,0.0,81,0.00,,,0.00,weatherlink.com 1.10,2013-04-27 07:49:00,
2013-04-27 04:04:00,53.0,48.0,30.36,SSE,148,0.0,0.0,82,0.00,,,0.00,weatherlink.com 1.10,2013-04-27 08:04:00,
2013-04-27 04:19:00,52.7,47.0,30.36,SSE,148,0.0,0.0,82,0.00,,,0.00,weatherlink.com 1.10,2013-04-27 08:19:00,
2013-04-27 04:34:00,52.4,47.0,30.35,SSE,148,0.0,0.0,83,0.00,,,0.00,weatherlink.com 1.10,2013-04-27 08:34:00,
2013-04-27 04:49:00,52.2,47.0,30.35,SSE,148,0.0,0.0,83,0.00,,,0.00,weatherlink.com 1.10,2013-04-27 08:49:00,
2013-04-27 05:04:00,52.0,47.0,30.34,SSE,148,0.0,0.0,84,0.00,,,0.00,weatherlink.com 1.10,2013-04-27 09:04:00,
2013-04-27 05:19:00,51.8,47.0,30.35,SSE,148,0.0,0.0,84,0.00,,,0.00,weatherlink.com 1.10,2013-04-27 09:19:00,
2013-04-27 05:34:00,51.4,47.0,30.34,SSE,148,0.0,0.0,84,0.00,,,0.00,weatherlink.com 1.10,2013-04-27 09:34:00,
2013-04-27 05:49:00,51.3,46.0,30.34,SSE,148,0.0,0.0,83,0.00,,,0.00,weatherlink.com 1.10,2013-04-27 09:49:00,
2013-04-27 06:04:00,51.2,47.0,30.35,SSE,148,0.0,0.0,84,0.00,,,0.00,weatherlink.com 1.10,2013-04-27 10:04:00,
2013-04-27 06:19:00,51.1,46.0,30.36,SSE,148,0.0,0.0,84,0.00,,,0.00,weatherlink.com 1.10,2013-04-27 10:19:00,
2013-04-27 06:34:00,51.1,46.0,30.36,SSE,148,0.0,0.0,84,0.00,,,0.00,weatherlink.com 1.10,2013-04-27 10:34:00,
2013-04-27 06:49:00,51.2,46.0,30.37,SSE,148,0.0,0.0,82,0.00,,,0.00,weatherlink.com 1.10,2013-04-27 10:49:00,
2013-04-27 07:04:00,51.4,46.0,30.37,SSE,148,0.0,0.0,83,0.00,,,0.00,weatherlink.com 1.10,2013-04-27 11:04:00,
2013-04-27 07:19:00,52.0,47.0,30.37,SSE,148,0.0,0.0,84,0.00,,,0.00,weatherlink.com 1.10,2013-04-27 11:19:00,
2013-04-27 07:34:00,52.9,48.0,30.38,SSE,148,0.0,0.0,82,0.00,,,0.00,weatherlink.com 1.10,2013-04-27 11:34:00,
2013-04-27 07:49:00,54.1,48.0,30.38,NNE,23,0.0,1.0,79,0.00,,,0.00,weatherlink.com 1.10,2013-04-27 11:49:00,
2013-04-27 08:04:00,56.1,48.0,30.38,SE,134,1.0,3.0,73,0.00,,,0.00,weatherlink.com 1.10,2013-04-27 12:04:00,
2013-04-27 08:19:00,57.0,48.0,30.39,ESE,102,0.0,1.0,73,0.00,,,0.00,weatherlink.com 1.10,2013-04-27 12:19:00,
2013-04-27 08:34:00,58.7,49.0,30.38,SSE,158,2.0,2.0,71,0.00,,,0.00,weatherlink.com 1.10,2013-04-27 12:34:00,
2013-04-27 08:49:00,60.3,49.0,30.38,SSE,165,2.0,3.0,67,0.00,,,0.00,weatherlink.com 1.10,2013-04-27 12:49:00,
2013-04-27 09:05:00,61.1,49.0,30.38,ESE,123,2.0,5.0,64,0.00,,,0.00,weatherlink.com 1.10,2013-04-27 13:05:00,
2013-04-27 09:20:00,62.9,50.0,30.37,ESE,115,0.0,2.0,63,0.00,,,0.00,weatherlink.com 1.10,2013-04-27 13:20:00,
2013-04-27 09:35:00,65.0,48.0,30.37,SSW,207,0.0,3.0,55,0.00,,,0.00,weatherlink.com 1.10,2013-04-27 13:35:00,
2013-04-27 09:50:00,66.0,49.0,30.37,SSE,153,1.0,2.0,54,0.00,,,0.00,weatherlink.com 1.10,2013-04-27 13:50:00,
2013-04-27 10:05:00,65.8,46.0,30.37,South,189,0.0,8.0,50,0.00,,,0.00,weatherlink.com 1.10,2013-04-27 14:05:00,
2013-04-27 10:20:00,67.4,47.0,30.37,NNW,333,0.0,4.0,48,0.00,,,0.00,weatherlink.com 1.10,2013-04-27 14:20:00,
2013-04-27 10:35:00,68.2,46.0,30.37,East,92,2.0,6.0,46,0.00,,,0.00,weatherlink.com 1.10,2013-04-27 14:35:00,
2013-04-27 10:50:00,69.0,43.0,30.37,SE,143,0.0,5.0,39,0.00,,,0.00,weatherlink.com 1.10,2013-04-27 14:50:00,
2013-04-27 11:05:00,69.7,44.0,30.37,North,4,4.0,6.0,39,0.00,,,0.00,weatherlink.com 1.10,2013-04-27 15:05:00,
2013-04-27 11:20:00,69.8,42.0,30.37,SSE,157,0.0,5.0,37,0.00,,,0.00,weatherlink.com 1.10,2013-04-27 15:20:00,
2013-04-27 11:35:00,71.0,42.0,30.36,WNW,297,0.0,4.0,35,0.00,,,0.00,weatherlink.com 1.10,2013-04-27 15:35:00,
2013-04-27 11:50:00,70.5,42.0,30.36,SSE,168,3.0,10.0,36,0.00,,,0.00,weatherlink.com 1.10,2013-04-27 15:50:00,
2013-04-27 12:05:00,71.8,44.0,30.35,ESE,110,1.0,4.0,37,0.00,,,0.00,weatherlink.com 1.10,2013-04-27 16:05:00,
2013-04-27 12:20:00,72.2,44.0,30.35,ENE,76,1.0,3.0,37,0.00,,,0.00,weatherlink.com 1.10,2013-04-27 16:20:00,
2013-04-27 12:35:00,72.4,47.0,30.34,SSW,195,0.0,6.0,40,0.00,,,0.00,weatherlink.com 1.10,2013-04-27 16:35:00,
2013-04-27 12:50:00,73.9,43.0,30.34,SSW,212,0.0,4.0,33,0.00,,,0.00,weatherlink.com 1.10,2013-04-27 16:50:00,
2013-04-27 13:05:00,73.9,46.0,30.33,South,189,3.0,6.0,37,0.00,,,0.00,weatherlink.com 1.10,2013-04-27 17:05:00,
2013-04-27 13:20:00,73.3,43.0,30.32,SE,134,2.0,6.0,34,0.00,,,0.00,weatherlink.com 1.10,2013-04-27 17:20:00,
2013-04-27 13:35:00,74.4,44.0,30.32,West,274,0.0,7.0,34,0.00,,,0.00,weatherlink.com 1.10,2013-04-27 17:35:00,
2013-04-27 13:50:00,74.2,45.0,30.32,West,276,0.0,5.0,36,0.00,,,0.00,weatherlink.com 1.10,2013-04-27 17:50:00,
2013-04-27 14:05:00,74.6,45.0,30.31,SSE,162,1.0,5.0,35,0.00,,,0.00,weatherlink.com 1.10,2013-04-27 18:05:00,
2013-04-27 14:20:00,74.4,43.0,30.31,SE,138,0.0,5.0,33,0.00,,,0.00,weatherlink.com 1.10,2013-04-27 18:20:00,
2013-04-27 14:35:00,74.8,44.0,30.31,South,169,4.0,4.0,33,0.00,,,0.00,weatherlink.com 1.10,2013-04-27 18:35:00,
2013-04-27 14:50:00,74.2,43.0,30.30,North,360,0.0,5.0,33,0.00,,,0.00,weatherlink.com 1.10,2013-04-27 18:50:00,
2013-04-27 15:05:00,73.2,45.0,30.30,SW,222,2.0,5.0,37,0.00,,,0.00,weatherlink.com 1.10,2013-04-27 19:05:00,
2013-04-27 15:20:00,74.4,46.0,30.30,SSE,154,0.0,3.0,36,0.00,,,0.00,weatherlink.com 1.10,2013-04-27 19:20:00,
2013-04-27 15:36:00,74.3,47.0,30.30,South,180,2.0,3.0,38,0.00,,,0.00,weatherlink.com 1.10,2013-04-27 19:36:00,
2013-04-27 15:50:00,72.9,45.0,30.29,SSE,168,1.0,4.0,37,0.00,,,0.00,weatherlink.com 1.10,2013-04-27 19:50:00,
2013-04-27 16:06:00,72.7,45.0,30.29,SE,146,0.0,2.0,37,0.00,,,0.00,weatherlink.com 1.10,2013-04-27 20:06:00,
2013-04-27 16:21:00,72.8,47.0,30.28,South,170,0.0,0.0,40,0.00,,,0.00,weatherlink.com 1.10,2013-04-27 20:21:00,
2013-04-27 16:36:00,73.3,47.0,30.28,South,169,0.0,0.0,39,0.00,,,0.00,weatherlink.com 1.10,2013-04-27 20:36:00,
2013-04-27 16:51:00,72.3,48.0,30.28,SE,135,0.0,1.0,42,0.00,,,0.00,weatherlink.com 1.10,2013-04-27 20:51:00,
2013-04-27 17:06:00,72.1,48.0,30.28,SE,124,0.0,0.0,43,0.00,,,0.00,weatherlink.com 1.10,2013-04-27 21:06:00,
2013-04-27 17:21:00,71.6,48.0,30.28,SE,127,0.0,0.0,44,0.00,,,0.00,weatherlink.com 1.10,2013-04-27 21:21:00,
2013-04-27 17:36:00,70.9,48.0,30.28,SE,127,0.0,0.0,44,0.00,,,0.00,weatherlink.com 1.10,2013-04-27 21:36:00,
2013-04-27 17:51:00,70.4,50.0,30.28,SSE,149,0.0,0.0,48,0.00,,,0.00,weatherlink.com 1.10,2013-04-27 21:51:00,
2013-04-27 18:06:00,69.6,49.0,30.28,ESE,116,0.0,1.0,48,0.00,,,0.00,weatherlink.com 1.10,2013-04-27 22:06:00,
2013-04-27 18:21:00,69.4,49.0,30.27,SE,127,0.0,1.0,49,0.00,,,0.00,weatherlink.com 1.10,2013-04-27 22:21:00,
2013-04-27 18:36:00,69.3,50.0,30.28,SE,125,0.0,0.0,51,0.00,,,0.00,weatherlink.com 1.10,2013-04-27 22:36:00,
2013-04-27 18:51:00,68.1,51.0,30.27,SE,125,0.0,0.0,54,0.00,,,0.00,weatherlink.com 1.10,2013-04-27 22:51:00,
2013-04-27 19:06:00,68.1,50.0,30.27,WSW,243,0.0,0.0,53,0.00,,,0.00,weatherlink.com 1.10,2013-04-27 23:06:00,
2013-04-27 19:21:00,67.5,50.0,30.27,WSW,243,0.0,1.0,53,0.00,,,0.00,weatherlink.com 1.10,2013-04-27 23:21:00,
2013-04-27 19:36:00,67.2,50.0,30.27,WSW,243,0.0,0.0,54,0.00,,,0.00,weatherlink.com 1.10,2013-04-27 23:36:00,
2013-04-27 19:51:00,66.6,51.0,30.26,WSW,243,0.0,0.0,57,0.00,,,0.00,weatherlink.com 1.10,2013-04-27 23:51:00,
2013-04-27 20:06:00,65.1,49.0,30.26,WSW,243,0.0,0.0,57,0.00,,,0.00,weatherlink.com 1.10,2013-04-28 00:06:00,
2013-04-27 20:21:00,64.1,49.0,30.26,WSW,243,0.0,0.0,58,0.00,,,0.00,weatherlink.com 1.10,2013-04-28 00:21:00,
2013-04-27 20:36:00,63.5,50.0,30.26,WSW,243,0.0,0.0,61,0.00,,,0.00,weatherlink.com 1.10,2013-04-28 00:36:00,
2013-04-27 20:51:00,62.9,51.0,30.27,WSW,243,0.0,0.0,65,0.00,,,0.00,weatherlink.com 1.10,2013-04-28 00:51:00,
2013-04-27 21:06:00,62.4,50.0,30.27,WSW,243,0.0,0.0,65,0.00,,,0.00,weatherlink.com 1.10,2013-04-28 01:06:00,
2013-04-27 21:21:00,62.0,51.0,30.27,WSW,243,0.0,0.0,67,0.00,,,0.00,weatherlink.com 1.10,2013-04-28 01:21:00,
2013-04-27 21:36:00,61.6,50.0,30.27,WSW,243,0.0,0.0,67,0.00,,,0.00,weatherlink.com 1.10,2013-04-28 01:36:00,
2013-04-27 21:51:00,61.3,51.0,30.27,WSW,243,0.0,0.0,69,0.00,,,0.00,weatherlink.com 1.10,2013-04-28 01:51:00,
2013-04-27 22:06:00,61.1,51.0,30.28,WSW,243,0.0,0.0,69,0.00,,,0.00,weatherlink.com 1.10,2013-04-28 02:06:00,
2013-04-27 22:21:00,61.1,51.0,30.28,SE,144,3.0,3.0,69,0.00,,,0.00,weatherlink.com 1.10,2013-04-28 02:21:00,
2013-04-27 22:36:00,63.2,49.0,30.28,SE,139,0.0,4.0,61,0.00,,,0.00,weatherlink.com 1.10,2013-04-28 02:36:00,
2013-04-27 22:51:00,64.4,48.0,30.27,WSW,239,1.0,6.0,56,0.00,,,0.00,weatherlink.com 1.10,2013-04-28 02:51:00,
2013-04-27 23:06:00,64.3,49.0,30.27,South,181,0.0,8.0,57,0.00,,,0.00,weatherlink.com 1.10,2013-04-28 03:06:00,
2013-04-27 23:21:00,63.9,48.0,30.26,SE,138,0.0,2.0,57,0.00,,,0.00,weatherlink.com 1.10,2013-04-28 03:21:00,
2013-04-27 23:36:00,63.7,48.0,30.26,SW,215,0.0,4.0,56,0.00,,,0.00,weatherlink.com 1.10,2013-04-28 03:36:00,
2013-04-27 23:51:00,63.6,48.0,30.26,South,174,1.0,4.0,58,0.00,,,0.00,weatherlink.com 1.10,2013-04-28 03:51:00,